KGEG/GEG METAR and TAF weather

Enter ICAO airport designator
Station Type Date Time Source
KGEG METAR 2024/04/17 18:53 UTC NOAA

KGEG 171853Z VRB04KT 10SM FEW060 FEW150 FEW250 09/M03 A3032 RMK AO2 SLP279 VIRGA CB DSNT NE-E VCSH E SHRA DSNT NE-E T00891028


Station Type Date Time Source
KGEG Decoded METAR 2024/04/17 18:53 UTC NOAA

SPOKANE INTERNATIONAL AIRPORT , WA, United States (KGEG) 47-37N 117-32W 735M
Apr 17, 2024 - 02:53 PM EDT / 2024.04.17 1853 UTC
Wind: Variable at 5 MPH (4 KT):0
Visibility: 10 mile(s):0
Sky conditions: mostly clear
Weather: Cumulonimbus clouds observed
Temperature: 48.0 F (8.9 C)
Dew Point: 27.0 F (-2.8 C)
Relative Humidity: 43%
Pressure (altimeter): 30.32 in. Hg (1026 hPa)
ob: KGEG 171853Z VRB04KT 10SM FEW060 FEW150 FEW250 09/M03 A3032 RMK AO2 SLP279 VIRGA CB DSNT NE-E VCSH E SHRA DSNT NE-E T00891028
cycle: 19

Station Type Date Time Source
KGEG TAF 2024/04/17 18:42 UTC NOAA